Main page
METAR-TAF:

METAR-TAF

Airports :

Marsa Alam International Airport

Marsa Alam, Egypt

latitude: 25-33-25N, longitude: 34-35-01E, elevation: 77 m

Current weather observation

The report was made 3 hours and 21 minutes ago, at 13:00 UTC
Wind 16 kt from the North
Temperature 36°C
Humidity 22%
Pressure 1008 hPa
Visibility 10 km or more
no clouds below 1500 m and no cumulonimbus

METAR: HEMA 221300Z 36016KT CAVOK 36/11 Q1008 NOSIG

Time: 18:21 (16:21 UTC)

Forecast

The report was made 5 hours and 21 minutes ago, at 11:00 UTC
Forecast valid from 22 at 12 UTC to 23 at 18 UTC
Wind 12 kt from the North with gusts up to 22 kt
Visibility 10 km or more
no clouds below 1500 m and no cumulonimbus

TAF: HEMA 221100Z 2212/2318 36012G22KT CAVOK

Weather observations and forecasts of more than 4000 airports (METAR and TAF reports).

The available stations are represented by yellow and red dots on the map.

Hover mouse over dot to see the name of the station.

Then click to see weather observations and forecasts.

To change the map : click on the green buttons with a black cross to zoom in, on the green button with a dash to zoom out, or on the green arrows for adjacent maps.


METAR-TAF: